sensor_id;sensor_type;location;lat;lon;timestamp;P1;durP1;ratioP1;P2;durP2;ratioP2
4138;SDS011;2083;51.034;6.996;2022-09-02T00:01:41;5.73;;;1.37;;
4138;SDS011;2083;51.034;6.996;2022-09-02T00:04:16;1.63;;;1.53;;
4138;SDS011;2083;51.034;6.996;2022-09-02T00:06:43;1.67;;;1.57;;
4138;SDS011;2083;51.034;6.996;2022-09-02T00:09:10;3.47;;;2.40;;
4138;SDS011;2083;51.034;6.996;2022-09-02T00:11:37;22.53;;;1.83;;
4138;SDS011;2083;51.034;6.996;2022-09-02T00:14:04;2.40;;;1.70;;
4138;SDS011;2083;51.034;6.996;2022-09-02T00:16:31;7.53;;;2.13;;
4138;SDS011;2083;51.034;6.996;2022-09-02T00:18:58;5.13;;;1.90;;
4138;SDS011;2083;51.034;6.996;2022-09-02T00:21:24;4.97;;;1.50;;
4138;SDS011;2083;51.034;6.996;2022-09-02T00:23:51;1.50;;;1.40;;
4138;SDS011;2083;51.034;6.996;2022-09-02T00:26:17;3.10;;;1.80;;
4138;SDS011;2083;51.034;6.996;2022-09-02T00:28:43;1.60;;;1.40;;
4138;SDS011;2083;51.034;6.996;2022-09-02T00:31:10;2.50;;;1.70;;
4138;SDS011;2083;51.034;6.996;2022-09-02T00:33:37;1.60;;;1.50;;
4138;SDS011;2083;51.034;6.996;2022-09-02T00:36:03;2.90;;;1.60;;
4138;SDS011;2083;51.034;6.996;2022-09-02T00:38:29;5.67;;;1.70;;
4138;SDS011;2083;51.034;6.996;2022-09-02T00:40:57;1.70;;;1.60;;
4138;SDS011;2083;51.034;6.996;2022-09-02T00:43:24;2.30;;;1.40;;
4138;SDS011;2083;51.034;6.996;2022-09-02T00:45:51;2.47;;;1.47;;
4138;SDS011;2083;51.034;6.996;2022-09-02T00:48:18;5.93;;;1.43;;
4138;SDS011;2083;51.034;6.996;2022-09-02T00:50:44;2.43;;;1.43;;
4138;SDS011;2083;51.034;6.996;2022-09-02T00:53:11;1.93;;;1.83;;
4138;SDS011;2083;51.034;6.996;2022-09-02T00:55:46;5.63;;;1.80;;
4138;SDS011;2083;51.034;6.996;2022-09-02T00:58:26;3.80;;;1.57;;
4138;SDS011;2083;51.034;6.996;2022-09-02T01:00:55;2.97;;;1.73;;
4138;SDS011;2083;51.034;6.996;2022-09-02T01:03:21;7.30;;;2.07;;
4138;SDS011;2083;51.034;6.996;2022-09-02T01:05:49;2.03;;;1.93;;
4138;SDS011;2083;51.034;6.996;2022-09-02T01:08:19;2.10;;;1.90;;
4138;SDS011;2083;51.034;6.996;2022-09-02T01:10:47;1.30;;;1.20;;
4138;SDS011;2083;51.034;6.996;2022-09-02T01:13:15;4.30;;;1.60;;
4138;SDS011;2083;51.034;6.996;2022-09-02T01:15:42;1.60;;;1.50;;
4138;SDS011;2083;51.034;6.996;2022-09-02T01:18:09;2.20;;;1.57;;
4138;SDS011;2083;51.034;6.996;2022-09-02T01:20:36;1.90;;;1.70;;
4138;SDS011;2083;51.034;6.996;2022-09-02T01:23:02;3.00;;;1.57;;
4138;SDS011;2083;51.034;6.996;2022-09-02T01:25:30;7.33;;;1.70;;
4138;SDS011;2083;51.034;6.996;2022-09-02T01:28:15;5.40;;;1.60;;
4138;SDS011;2083;51.034;6.996;2022-09-02T01:30:43;5.80;;;1.90;;
4138;SDS011;2083;51.034;6.996;2022-09-02T01:33:10;1.53;;;1.43;;
4138;SDS011;2083;51.034;6.996;2022-09-02T01:35:36;2.10;;;1.70;;
4138;SDS011;2083;51.034;6.996;2022-09-02T01:38:02;1.90;;;1.80;;
4138;SDS011;2083;51.034;6.996;2022-09-02T01:40:29;11.93;;;1.93;;
4138;SDS011;2083;51.034;6.996;2022-09-02T01:42:57;2.00;;;1.90;;
4138;SDS011;2083;51.034;6.996;2022-09-02T01:45:24;3.27;;;2.10;;
4138;SDS011;2083;51.034;6.996;2022-09-02T01:47:50;4.60;;;1.70;;
4138;SDS011;2083;51.034;6.996;2022-09-02T01:50:16;1.60;;;1.50;;
4138;SDS011;2083;51.034;6.996;2022-09-02T01:52:43;5.63;;;1.90;;
4138;SDS011;2083;51.034;6.996;2022-09-02T01:55:09;3.60;;;1.90;;
4138;SDS011;2083;51.034;6.996;2022-09-02T01:57:35;3.17;;;2.37;;
4138;SDS011;2083;51.034;6.996;2022-09-02T02:00:02;2.37;;;2.17;;
4138;SDS011;2083;51.034;6.996;2022-09-02T02:02:29;8.23;;;1.90;;
4138;SDS011;2083;51.034;6.996;2022-09-02T02:04:55;2.70;;;1.90;;
4138;SDS011;2083;51.034;6.996;2022-09-02T02:07:21;1.90;;;1.80;;
4138;SDS011;2083;51.034;6.996;2022-09-02T02:09:48;5.67;;;1.97;;
4138;SDS011;2083;51.034;6.996;2022-09-02T02:12:14;2.63;;;1.77;;
4138;SDS011;2083;51.034;6.996;2022-09-02T02:14:40;1.93;;;1.83;;
4138;SDS011;2083;51.034;6.996;2022-09-02T02:17:06;4.23;;;1.80;;
4138;SDS011;2083;51.034;6.996;2022-09-02T02:19:33;2.20;;;2.00;;
4138;SDS011;2083;51.034;6.996;2022-09-02T02:21:59;7.03;;;1.87;;
4138;SDS011;2083;51.034;6.996;2022-09-02T02:24:26;2.00;;;1.80;;
4138;SDS011;2083;51.034;6.996;2022-09-02T02:26:52;1.90;;;1.60;;
4138;SDS011;2083;51.034;6.996;2022-09-02T02:29:18;2.07;;;1.80;;
4138;SDS011;2083;51.034;6.996;2022-09-02T02:31:44;3.00;;;1.60;;
4138;SDS011;2083;51.034;6.996;2022-09-02T02:34:10;2.03;;;1.93;;
4138;SDS011;2083;51.034;6.996;2022-09-02T02:36:37;5.50;;;1.90;;
4138;SDS011;2083;51.034;6.996;2022-09-02T02:39:04;1.80;;;1.70;;
4138;SDS011;2083;51.034;6.996;2022-09-02T02:41:30;1.50;;;1.40;;
4138;SDS011;2083;51.034;6.996;2022-09-02T02:43:56;2.30;;;1.83;;
4138;SDS011;2083;51.034;6.996;2022-09-02T02:46:22;1.63;;;1.53;;
4138;SDS011;2083;51.034;6.996;2022-09-02T02:48:48;1.67;;;1.57;;
4138;SDS011;2083;51.034;6.996;2022-09-02T02:51:14;1.70;;;1.60;;
4138;SDS011;2083;51.034;6.996;2022-09-02T02:53:40;6.10;;;2.13;;
4138;SDS011;2083;51.034;6.996;2022-09-02T02:56:07;1.93;;;1.80;;
4138;SDS011;2083;51.034;6.996;2022-09-02T02:58:34;2.70;;;2.13;;
4138;SDS011;2083;51.034;6.996;2022-09-02T03:01:00;4.30;;;1.80;;
4138;SDS011;2083;51.034;6.996;2022-09-02T03:03:26;2.00;;;1.90;;
4138;SDS011;2083;51.034;6.996;2022-09-02T03:05:53;2.43;;;1.77;;
4138;SDS011;2083;51.034;6.996;2022-09-02T03:08:19;1.77;;;1.67;;
4138;SDS011;2083;51.034;6.996;2022-09-02T03:10:46;1.83;;;1.73;;
4138;SDS011;2083;51.034;6.996;2022-09-02T03:13:13;3.00;;;2.03;;
4138;SDS011;2083;51.034;6.996;2022-09-02T03:15:41;1.97;;;1.83;;
4138;SDS011;2083;51.034;6.996;2022-09-02T03:18:08;2.20;;;2.03;;
4138;SDS011;2083;51.034;6.996;2022-09-02T03:20:34;2.60;;;1.50;;
4138;SDS011;2083;51.034;6.996;2022-09-02T03:23:00;2.13;;;2.00;;
4138;SDS011;2083;51.034;6.996;2022-09-02T03:25:28;2.87;;;1.90;;
4138;SDS011;2083;51.034;6.996;2022-09-02T03:27:54;2.53;;;1.80;;
4138;SDS011;2083;51.034;6.996;2022-09-02T03:30:24;1.90;;;1.70;;
4138;SDS011;2083;51.034;6.996;2022-09-02T03:32:50;2.03;;;1.93;;
4138;SDS011;2083;51.034;6.996;2022-09-02T03:35:17;2.10;;;1.70;;
4138;SDS011;2083;51.034;6.996;2022-09-02T03:37:44;1.90;;;1.70;;
4138;SDS011;2083;51.034;6.996;2022-09-02T03:40:12;3.20;;;1.60;;
4138;SDS011;2083;51.034;6.996;2022-09-02T03:42:38;1.60;;;1.50;;
4138;SDS011;2083;51.034;6.996;2022-09-02T03:45:04;2.10;;;1.90;;
4138;SDS011;2083;51.034;6.996;2022-09-02T03:47:31;2.10;;;2.00;;
4138;SDS011;2083;51.034;6.996;2022-09-02T03:49:57;2.43;;;1.80;;
4138;SDS011;2083;51.034;6.996;2022-09-02T03:52:24;1.60;;;1.50;;
4138;SDS011;2083;51.034;6.996;2022-09-02T03:54:50;4.20;;;1.70;;
4138;SDS011;2083;51.034;6.996;2022-09-02T03:57:16;2.33;;;1.60;;
4138;SDS011;2083;51.034;6.996;2022-09-02T03:59:44;2.47;;;2.37;;
4138;SDS011;2083;51.034;6.996;2022-09-02T04:02:10;2.60;;;1.80;;
4138;SDS011;2083;51.034;6.996;2022-09-02T04:04:36;6.43;;;2.13;;
4138;SDS011;2083;51.034;6.996;2022-09-02T04:07:02;2.80;;;2.37;;
4138;SDS011;2083;51.034;6.996;2022-09-02T04:09:28;3.43;;;1.83;;
4138;SDS011;2083;51.034;6.996;2022-09-02T04:11:54;2.10;;;1.93;;
4138;SDS011;2083;51.034;6.996;2022-09-02T04:14:20;1.67;;;1.57;;
4138;SDS011;2083;51.034;6.996;2022-09-02T04:16:46;2.33;;;1.90;;
4138;SDS011;2083;51.034;6.996;2022-09-02T04:19:12;4.30;;;1.90;;
4138;SDS011;2083;51.034;6.996;2022-09-02T04:21:38;2.80;;;1.70;;
4138;SDS011;2083;51.034;6.996;2022-09-02T04:24:05;0.63;;;0.30;;
4138;SDS011;2083;51.034;6.996;2022-09-02T04:26:33;1.93;;;1.70;;
4138;SDS011;2083;51.034;6.996;2022-09-02T04:28:59;2.13;;;2.03;;
4138;SDS011;2083;51.034;6.996;2022-09-02T04:31:26;3.20;;;2.03;;
4138;SDS011;2083;51.034;6.996;2022-09-02T04:33:54;2.00;;;1.80;;
4138;SDS011;2083;51.034;6.996;2022-09-02T04:36:20;3.17;;;2.00;;
4138;SDS011;2083;51.034;6.996;2022-09-02T04:38:47;8.47;;;1.93;;
4138;SDS011;2083;51.034;6.996;2022-09-02T04:41:15;4.53;;;2.43;;
4138;SDS011;2083;51.034;6.996;2022-09-02T04:43:41;2.17;;;2.07;;
4138;SDS011;2083;51.034;6.996;2022-09-02T04:46:08;1.97;;;1.87;;
4138;SDS011;2083;51.034;6.996;2022-09-02T04:48:34;5.80;;;2.60;;
4138;SDS011;2083;51.034;6.996;2022-09-02T04:51:04;5.27;;;2.10;;
4138;SDS011;2083;51.034;6.996;2022-09-02T04:53:30;3.10;;;2.30;;
4138;SDS011;2083;51.034;6.996;2022-09-02T04:55:56;3.20;;;2.53;;
4138;SDS011;2083;51.034;6.996;2022-09-02T04:58:22;6.53;;;2.30;;
4138;SDS011;2083;51.034;6.996;2022-09-02T05:00:48;3.70;;;2.30;;
4138;SDS011;2083;51.034;6.996;2022-09-02T05:03:15;2.63;;;2.43;;
4138;SDS011;2083;51.034;6.996;2022-09-02T05:05:41;2.60;;;2.40;;
4138;SDS011;2083;51.034;6.996;2022-09-02T05:08:06;20.23;;;2.53;;
4138;SDS011;2083;51.034;6.996;2022-09-02T05:10:34;2.43;;;2.07;;
4138;SDS011;2083;51.034;6.996;2022-09-02T05:13:00;5.90;;;2.03;;
4138;SDS011;2083;51.034;6.996;2022-09-02T05:15:26;8.53;;;2.23;;
4138;SDS011;2083;51.034;6.996;2022-09-02T05:17:52;2.90;;;2.70;;
4138;SDS011;2083;51.034;6.996;2022-09-02T05:20:18;3.60;;;2.20;;
4138;SDS011;2083;51.034;6.996;2022-09-02T05:22:44;2.10;;;2.00;;
4138;SDS011;2083;51.034;6.996;2022-09-02T05:25:10;2.33;;;2.23;;
4138;SDS011;2083;51.034;6.996;2022-09-02T05:27:36;6.80;;;2.30;;
4138;SDS011;2083;51.034;6.996;2022-09-02T05:30:03;3.63;;;1.93;;
4138;SDS011;2083;51.034;6.996;2022-09-02T05:32:29;2.50;;;1.80;;
4138;SDS011;2083;51.034;6.996;2022-09-02T05:34:55;3.07;;;2.10;;
4138;SDS011;2083;51.034;6.996;2022-09-02T05:37:22;2.37;;;1.83;;
4138;SDS011;2083;51.034;6.996;2022-09-02T05:39:48;3.10;;;1.83;;
4138;SDS011;2083;51.034;6.996;2022-09-02T05:42:14;4.97;;;2.10;;
4138;SDS011;2083;51.034;6.996;2022-09-02T05:44:41;8.43;;;2.43;;
4138;SDS011;2083;51.034;6.996;2022-09-02T05:47:09;3.23;;;1.77;;
4138;SDS011;2083;51.034;6.996;2022-09-02T05:49:35;6.80;;;2.33;;
4138;SDS011;2083;51.034;6.996;2022-09-02T05:52:01;2.27;;;2.07;;
4138;SDS011;2083;51.034;6.996;2022-09-02T05:54:29;16.73;;;2.20;;
4138;SDS011;2083;51.034;6.996;2022-09-02T05:56:58;2.20;;;2.00;;
4138;SDS011;2083;51.034;6.996;2022-09-02T05:59:26;1.77;;;1.67;;
4138;SDS011;2083;51.034;6.996;2022-09-02T06:01:52;6.43;;;1.50;;
4138;SDS011;2083;51.034;6.996;2022-09-02T06:04:22;2.73;;;2.53;;
4138;SDS011;2083;51.034;6.996;2022-09-02T06:06:49;1.50;;;1.40;;
4138;SDS011;2083;51.034;6.996;2022-09-02T06:09:16;3.43;;;1.40;;
4138;SDS011;2083;51.034;6.996;2022-09-02T06:11:42;3.83;;;1.20;;
4138;SDS011;2083;51.034;6.996;2022-09-02T06:14:10;1.70;;;1.60;;
4138;SDS011;2083;51.034;6.996;2022-09-02T06:16:37;2.40;;;1.40;;
4138;SDS011;2083;51.034;6.996;2022-09-02T06:19:04;3.10;;;1.43;;
4138;SDS011;2083;51.034;6.996;2022-09-02T06:21:30;1.40;;;1.30;;
4138;SDS011;2083;51.034;6.996;2022-09-02T06:23:58;3.87;;;1.63;;
4138;SDS011;2083;51.034;6.996;2022-09-02T06:26:24;1.93;;;1.80;;
4138;SDS011;2083;51.034;6.996;2022-09-02T06:28:50;1.57;;;1.47;;
4138;SDS011;2083;51.034;6.996;2022-09-02T06:31:19;3.80;;;1.70;;
4138;SDS011;2083;51.034;6.996;2022-09-02T06:33:45;1.53;;;1.33;;
4138;SDS011;2083;51.034;6.996;2022-09-02T06:36:13;1.60;;;1.50;;
4138;SDS011;2083;51.034;6.996;2022-09-02T06:38:40;3.30;;;2.10;;
4138;SDS011;2083;51.034;6.996;2022-09-02T06:41:09;2.50;;;2.33;;
4138;SDS011;2083;51.034;6.996;2022-09-02T06:43:35;1.93;;;1.83;;
4138;SDS011;2083;51.034;6.996;2022-09-02T06:46:02;1.90;;;1.80;;
4138;SDS011;2083;51.034;6.996;2022-09-02T06:48:28;2.30;;;1.97;;
4138;SDS011;2083;51.034;6.996;2022-09-02T06:50:54;3.03;;;2.20;;
4138;SDS011;2083;51.034;6.996;2022-09-02T06:53:20;2.33;;;1.30;;
4138;SDS011;2083;51.034;6.996;2022-09-02T06:55:47;1.80;;;1.57;;
4138;SDS011;2083;51.034;6.996;2022-09-02T06:58:13;1.53;;;1.43;;
4138;SDS011;2083;51.034;6.996;2022-09-02T07:00:40;1.60;;;1.50;;
4138;SDS011;2083;51.034;6.996;2022-09-02T07:03:06;9.20;;;1.90;;
4138;SDS011;2083;51.034;6.996;2022-09-02T07:06:09;8.77;;;1.70;;
4138;SDS011;2083;51.034;6.996;2022-09-02T07:08:36;4.40;;;2.03;;
4138;SDS011;2083;51.034;6.996;2022-09-02T07:11:02;2.60;;;2.13;;
4138;SDS011;2083;51.034;6.996;2022-09-02T07:13:28;2.30;;;1.77;;
4138;SDS011;2083;51.034;6.996;2022-09-02T07:15:54;1.90;;;1.80;;
4138;SDS011;2083;51.034;6.996;2022-09-02T07:18:20;2.00;;;1.90;;
4138;SDS011;2083;51.034;6.996;2022-09-02T07:20:47;3.83;;;2.00;;
4138;SDS011;2083;51.034;6.996;2022-09-02T07:23:13;2.10;;;1.70;;
4138;SDS011;2083;51.034;6.996;2022-09-02T07:25:40;2.93;;;1.97;;
4138;SDS011;2083;51.034;6.996;2022-09-02T07:28:07;2.33;;;1.87;;
4138;SDS011;2083;51.034;6.996;2022-09-02T07:30:33;3.00;;;1.87;;
4138;SDS011;2083;51.034;6.996;2022-09-02T07:33:01;4.40;;;1.90;;
4138;SDS011;2083;51.034;6.996;2022-09-02T07:35:28;1.80;;;1.70;;
4138;SDS011;2083;51.034;6.996;2022-09-02T07:37:55;2.30;;;2.17;;
4138;SDS011;2083;51.034;6.996;2022-09-02T07:40:21;1.87;;;1.77;;
4138;SDS011;2083;51.034;6.996;2022-09-02T07:42:47;2.80;;;1.90;;
4138;SDS011;2083;51.034;6.996;2022-09-02T07:45:14;1.97;;;1.70;;
4138;SDS011;2083;51.034;6.996;2022-09-02T07:47:40;2.30;;;2.20;;
4138;SDS011;2083;51.034;6.996;2022-09-02T07:50:08;2.13;;;1.97;;
4138;SDS011;2083;51.034;6.996;2022-09-02T07:52:34;2.73;;;1.87;;
4138;SDS011;2083;51.034;6.996;2022-09-02T07:55:00;8.43;;;1.60;;
4138;SDS011;2083;51.034;6.996;2022-09-02T07:57:28;2.23;;;1.80;;
4138;SDS011;2083;51.034;6.996;2022-09-02T07:59:55;2.13;;;1.20;;
4138;SDS011;2083;51.034;6.996;2022-09-02T08:02:21;3.00;;;2.00;;
4138;SDS011;2083;51.034;6.996;2022-09-02T08:04:48;1.90;;;1.80;;
4138;SDS011;2083;51.034;6.996;2022-09-02T08:07:15;3.20;;;2.07;;
4138;SDS011;2083;51.034;6.996;2022-09-02T08:09:42;6.10;;;2.10;;
4138;SDS011;2083;51.034;6.996;2022-09-02T08:12:08;3.43;;;1.60;;
4138;SDS011;2083;51.034;6.996;2022-09-02T08:14:34;6.50;;;1.60;;
4138;SDS011;2083;51.034;6.996;2022-09-02T08:17:00;1.93;;;1.70;;
4138;SDS011;2083;51.034;6.996;2022-09-02T08:19:27;1.70;;;1.60;;
4138;SDS011;2083;51.034;6.996;2022-09-02T08:21:53;18.63;;;1.67;;
4138;SDS011;2083;51.034;6.996;2022-09-02T08:24:19;2.23;;;1.93;;
4138;SDS011;2083;51.034;6.996;2022-09-02T08:26:45;1.93;;;1.83;;
4138;SDS011;2083;51.034;6.996;2022-09-02T08:29:11;1.80;;;1.70;;
4138;SDS011;2083;51.034;6.996;2022-09-02T08:31:38;1.47;;;1.37;;
4138;SDS011;2083;51.034;6.996;2022-09-02T08:34:04;3.17;;;1.60;;
4138;SDS011;2083;51.034;6.996;2022-09-02T08:36:30;2.30;;;1.33;;
4138;SDS011;2083;51.034;6.996;2022-09-02T08:38:56;2.10;;;2.00;;
4138;SDS011;2083;51.034;6.996;2022-09-02T08:41:23;3.00;;;1.57;;
4138;SDS011;2083;51.034;6.996;2022-09-02T08:43:51;3.20;;;1.73;;
4138;SDS011;2083;51.034;6.996;2022-09-02T08:46:18;1.97;;;1.50;;
4138;SDS011;2083;51.034;6.996;2022-09-02T08:48:56;4.50;;;1.80;;
4138;SDS011;2083;51.034;6.996;2022-09-02T08:51:27;2.90;;;1.10;;
4138;SDS011;2083;51.034;6.996;2022-09-02T08:53:59;2.07;;;1.33;;
4138;SDS011;2083;51.034;6.996;2022-09-02T08:56:28;1.53;;;1.43;;
4138;SDS011;2083;51.034;6.996;2022-09-02T08:58:55;1.20;;;1.20;;
4138;SDS011;2083;51.034;6.996;2022-09-02T09:09:04;1.20;;;1.10;;
4138;SDS011;2083;51.034;6.996;2022-09-02T09:11:36;1.40;;;1.30;;
4138;SDS011;2083;51.034;6.996;2022-09-02T09:16:40;1.13;;;1.13;;
4138;SDS011;2083;51.034;6.996;2022-09-02T09:19:13;1.20;;;1.10;;
4138;SDS011;2083;51.034;6.996;2022-09-02T09:21:40;5.50;;;1.17;;
4138;SDS011;2083;51.034;6.996;2022-09-02T09:24:17;1.30;;;1.20;;
4138;SDS011;2083;51.034;6.996;2022-09-02T09:26:43;4.43;;;1.20;;
4138;SDS011;2083;51.034;6.996;2022-09-02T09:29:11;2.90;;;1.23;;
4138;SDS011;2083;51.034;6.996;2022-09-02T09:31:37;1.10;;;1.00;;
4138;SDS011;2083;51.034;6.996;2022-09-02T09:34:08;2.70;;;1.30;;
4138;SDS011;2083;51.034;6.996;2022-09-02T09:41:41;1.40;;;1.30;;
4138;SDS011;2083;51.034;6.996;2022-09-02T09:44:09;1.10;;;1.00;;
4138;SDS011;2083;51.034;6.996;2022-09-02T09:46:35;3.93;;;1.47;;
4138;SDS011;2083;51.034;6.996;2022-09-02T09:49:01;1.33;;;1.23;;
4138;SDS011;2083;51.034;6.996;2022-09-02T09:51:27;1.40;;;1.30;;
4138;SDS011;2083;51.034;6.996;2022-09-02T09:53:59;1.00;;;1.00;;
4138;SDS011;2083;51.034;6.996;2022-09-02T09:56:38;2.70;;;1.53;;
4138;SDS011;2083;51.034;6.996;2022-09-02T09:59:05;1.00;;;1.00;;
4138;SDS011;2083;51.034;6.996;2022-09-02T10:01:32;1.60;;;1.50;;
4138;SDS011;2083;51.034;6.996;2022-09-02T10:11:39;1.43;;;1.33;;
4138;SDS011;2083;51.034;6.996;2022-09-02T10:14:18;1.30;;;1.20;;
4138;SDS011;2083;51.034;6.996;2022-09-02T10:16:58;3.43;;;1.20;;
4138;SDS011;2083;51.034;6.996;2022-09-02T10:27:33;0.97;;;0.90;;
4138;SDS011;2083;51.034;6.996;2022-09-02T10:30:03;0.90;;;0.90;;
4138;SDS011;2083;51.034;6.996;2022-09-02T10:37:22;3.73;;;1.20;;
4138;SDS011;2083;51.034;6.996;2022-09-02T10:47:31;1.33;;;1.23;;
4138;SDS011;2083;51.034;6.996;2022-09-02T10:52:42;1.63;;;1.50;;
4138;SDS011;2083;51.034;6.996;2022-09-02T10:55:20;3.10;;;1.40;;
4138;SDS011;2083;51.034;6.996;2022-09-02T11:00:20;1.60;;;1.50;;
4138;SDS011;2083;51.034;6.996;2022-09-02T11:02:53;1.40;;;1.07;;
4138;SDS011;2083;51.034;6.996;2022-09-02T11:05:24;1.50;;;1.40;;
4138;SDS011;2083;51.034;6.996;2022-09-02T11:08:35;5.87;;;1.47;;
4138;SDS011;2083;51.034;6.996;2022-09-02T11:10:49;1.10;;;1.10;;
4138;SDS011;2083;51.034;6.996;2022-09-02T11:13:27;0.80;;;0.67;;
4138;SDS011;2083;51.034;6.996;2022-09-02T11:18:39;0.70;;;0.60;;
4138;SDS011;2083;51.034;6.996;2022-09-02T11:21:23;0.70;;;0.50;;
4138;SDS011;2083;51.034;6.996;2022-09-02T11:23:56;0.70;;;0.43;;
4138;SDS011;2083;51.034;6.996;2022-09-02T11:29:04;0.70;;;0.47;;
4138;SDS011;2083;51.034;6.996;2022-09-02T11:31:33;0.60;;;0.30;;
4138;SDS011;2083;51.034;6.996;2022-09-02T11:34:43;0.60;;;0.40;;
4138;SDS011;2083;51.034;6.996;2022-09-02T11:36:49;0.73;;;0.70;;
4138;SDS011;2083;51.034;6.996;2022-09-02T11:39:36;0.77;;;0.57;;
4138;SDS011;2083;51.034;6.996;2022-09-02T11:42:06;1.30;;;0.73;;
4138;SDS011;2083;51.034;6.996;2022-09-02T11:50:08;0.80;;;0.60;;
4138;SDS011;2083;51.034;6.996;2022-09-02T11:52:45;0.70;;;0.60;;
4138;SDS011;2083;51.034;6.996;2022-09-02T11:55:15;1.50;;;0.70;;
4138;SDS011;2083;51.034;6.996;2022-09-02T11:57:49;0.60;;;0.30;;
4138;SDS011;2083;51.034;6.996;2022-09-02T12:07:59;0.70;;;0.50;;
4138;SDS011;2083;51.034;6.996;2022-09-02T12:13:10;0.70;;;0.60;;
4138;SDS011;2083;51.034;6.996;2022-09-02T12:15:37;0.70;;;0.60;;
4138;SDS011;2083;51.034;6.996;2022-09-02T12:23:04;0.70;;;0.40;;
4138;SDS011;2083;51.034;6.996;2022-09-02T12:41:44;1.03;;;0.93;;
4138;SDS011;2083;51.034;6.996;2022-09-02T12:54:16;0.60;;;0.30;;
4138;SDS011;2083;51.034;6.996;2022-09-02T12:56:49;0.60;;;0.40;;
4138;SDS011;2083;51.034;6.996;2022-09-02T12:59:21;0.60;;;0.47;;
4138;SDS011;2083;51.034;6.996;2022-09-02T13:02:01;0.70;;;0.47;;
4138;SDS011;2083;51.034;6.996;2022-09-02T13:04:44;0.70;;;0.50;;
4138;SDS011;2083;51.034;6.996;2022-09-02T13:07:25;0.70;;;0.60;;
4138;SDS011;2083;51.034;6.996;2022-09-02T13:10:03;0.70;;;0.50;;
4138;SDS011;2083;51.034;6.996;2022-09-02T13:12:40;0.60;;;0.40;;
4138;SDS011;2083;51.034;6.996;2022-09-02T13:28:21;0.60;;;0.37;;
4138;SDS011;2083;51.034;6.996;2022-09-02T13:33:38;1.07;;;0.90;;
4138;SDS011;2083;51.034;6.996;2022-09-02T13:36:04;0.70;;;0.50;;
4138;SDS011;2083;51.034;6.996;2022-09-02T13:38:30;0.70;;;0.40;;
4138;SDS011;2083;51.034;6.996;2022-09-02T13:40:56;1.70;;;1.17;;
4138;SDS011;2083;51.034;6.996;2022-09-02T13:43:24;0.70;;;0.67;;
4138;SDS011;2083;51.034;6.996;2022-09-02T13:45:51;0.70;;;0.60;;
4138;SDS011;2083;51.034;6.996;2022-09-02T13:50:47;0.70;;;0.57;;
4138;SDS011;2083;51.034;6.996;2022-09-02T13:56:00;2.07;;;1.10;;
4138;SDS011;2083;51.034;6.996;2022-09-02T14:00:56;1.83;;;1.73;;
4138;SDS011;2083;51.034;6.996;2022-09-02T14:03:23;0.73;;;0.73;;
4138;SDS011;2083;51.034;6.996;2022-09-02T14:05:50;0.60;;;0.30;;
4138;SDS011;2083;51.034;6.996;2022-09-02T14:08:20;0.70;;;0.50;;
4138;SDS011;2083;51.034;6.996;2022-09-02T14:10:47;4.60;;;2.43;;
4138;SDS011;2083;51.034;6.996;2022-09-02T14:13:15;0.70;;;0.60;;
4138;SDS011;2083;51.034;6.996;2022-09-02T14:15:41;1.17;;;0.90;;
4138;SDS011;2083;51.034;6.996;2022-09-02T14:20:34;1.43;;;0.87;;
4138;SDS011;2083;51.034;6.996;2022-09-02T14:23:00;0.70;;;0.60;;
4138;SDS011;2083;51.034;6.996;2022-09-02T14:25:34;0.70;;;0.60;;
4138;SDS011;2083;51.034;6.996;2022-09-02T14:28:01;0.70;;;0.50;;
4138;SDS011;2083;51.034;6.996;2022-09-02T14:35:40;0.80;;;0.67;;
4138;SDS011;2083;51.034;6.996;2022-09-02T14:38:06;0.80;;;0.50;;
4138;SDS011;2083;51.034;6.996;2022-09-02T14:40:36;0.70;;;0.50;;
4138;SDS011;2083;51.034;6.996;2022-09-02T14:43:02;0.60;;;0.50;;
4138;SDS011;2083;51.034;6.996;2022-09-02T14:45:29;2.43;;;0.73;;
4138;SDS011;2083;51.034;6.996;2022-09-02T14:47:56;0.60;;;0.40;;
4138;SDS011;2083;51.034;6.996;2022-09-02T14:50:25;0.80;;;0.60;;
4138;SDS011;2083;51.034;6.996;2022-09-02T14:52:54;0.80;;;0.70;;
4138;SDS011;2083;51.034;6.996;2022-09-02T14:58:06;0.70;;;0.60;;
4138;SDS011;2083;51.034;6.996;2022-09-02T15:00:32;0.80;;;0.63;;
4138;SDS011;2083;51.034;6.996;2022-09-02T15:02:58;0.70;;;0.57;;
4138;SDS011;2083;51.034;6.996;2022-09-02T15:05:24;6.50;;;1.80;;
4138;SDS011;2083;51.034;6.996;2022-09-02T15:07:51;1.93;;;1.83;;
4138;SDS011;2083;51.034;6.996;2022-09-02T15:10:17;2.33;;;1.90;;
4138;SDS011;2083;51.034;6.996;2022-09-02T15:12:47;1.87;;;1.77;;
4138;SDS011;2083;51.034;6.996;2022-09-02T15:15:14;2.10;;;1.43;;
4138;SDS011;2083;51.034;6.996;2022-09-02T15:17:39;1.97;;;1.87;;
4138;SDS011;2083;51.034;6.996;2022-09-02T15:20:06;1.83;;;1.73;;
4138;SDS011;2083;51.034;6.996;2022-09-02T15:22:35;1.70;;;1.47;;
4138;SDS011;2083;51.034;6.996;2022-09-02T15:25:01;1.70;;;1.60;;
4138;SDS011;2083;51.034;6.996;2022-09-02T15:27:29;1.63;;;1.53;;
4138;SDS011;2083;51.034;6.996;2022-09-02T15:29:55;2.80;;;1.30;;
4138;SDS011;2083;51.034;6.996;2022-09-02T15:32:21;2.30;;;2.10;;
4138;SDS011;2083;51.034;6.996;2022-09-02T15:34:50;1.57;;;1.47;;
4138;SDS011;2083;51.034;6.996;2022-09-02T15:37:16;4.30;;;1.60;;
4138;SDS011;2083;51.034;6.996;2022-09-02T15:39:42;1.63;;;1.50;;
4138;SDS011;2083;51.034;6.996;2022-09-02T15:42:08;1.60;;;1.50;;
4138;SDS011;2083;51.034;6.996;2022-09-02T15:44:34;4.50;;;1.40;;
4138;SDS011;2083;51.034;6.996;2022-09-02T15:47:00;2.43;;;1.70;;
4138;SDS011;2083;51.034;6.996;2022-09-02T15:49:26;7.07;;;1.73;;
4138;SDS011;2083;51.034;6.996;2022-09-02T15:51:52;1.80;;;1.57;;
4138;SDS011;2083;51.034;6.996;2022-09-02T15:54:20;1.43;;;1.33;;
4138;SDS011;2083;51.034;6.996;2022-09-02T15:56:47;1.83;;;1.73;;
4138;SDS011;2083;51.034;6.996;2022-09-02T15:59:14;2.30;;;1.80;;
4138;SDS011;2083;51.034;6.996;2022-09-02T16:01:42;4.20;;;1.80;;
4138;SDS011;2083;51.034;6.996;2022-09-02T16:04:09;1.63;;;1.53;;
4138;SDS011;2083;51.034;6.996;2022-09-02T16:06:36;1.70;;;1.60;;
4138;SDS011;2083;51.034;6.996;2022-09-02T16:09:08;2.00;;;1.80;;
4138;SDS011;2083;51.034;6.996;2022-09-02T16:11:42;6.57;;;2.00;;
4138;SDS011;2083;51.034;6.996;2022-09-02T16:14:08;5.43;;;1.87;;
4138;SDS011;2083;51.034;6.996;2022-09-02T16:16:34;3.43;;;1.23;;
4138;SDS011;2083;51.034;6.996;2022-09-02T16:19:00;5.13;;;2.37;;
4138;SDS011;2083;51.034;6.996;2022-09-02T16:21:27;5.60;;;1.60;;
4138;SDS011;2083;51.034;6.996;2022-09-02T16:23:53;1.60;;;1.50;;
4138;SDS011;2083;51.034;6.996;2022-09-02T16:26:30;1.90;;;1.80;;
4138;SDS011;2083;51.034;6.996;2022-09-02T16:29:00;5.63;;;1.40;;
4138;SDS011;2083;51.034;6.996;2022-09-02T16:31:28;3.70;;;1.60;;
4138;SDS011;2083;51.034;6.996;2022-09-02T16:34:02;0.60;;;0.40;;
4138;SDS011;2083;51.034;6.996;2022-09-02T16:36:29;0.93;;;0.70;;
4138;SDS011;2083;51.034;6.996;2022-09-02T16:38:55;0.70;;;0.40;;
4138;SDS011;2083;51.034;6.996;2022-09-02T16:41:31;0.60;;;0.40;;
4138;SDS011;2083;51.034;6.996;2022-09-02T16:44:03;0.83;;;0.80;;
4138;SDS011;2083;51.034;6.996;2022-09-02T16:46:29;0.70;;;0.50;;
4138;SDS011;2083;51.034;6.996;2022-09-02T16:48:56;1.00;;;0.73;;
4138;SDS011;2083;51.034;6.996;2022-09-02T16:51:23;0.60;;;0.30;;
4138;SDS011;2083;51.034;6.996;2022-09-02T16:53:53;0.60;;;0.30;;
4138;SDS011;2083;51.034;6.996;2022-09-02T16:56:19;0.80;;;0.80;;
4138;SDS011;2083;51.034;6.996;2022-09-02T16:58:46;0.67;;;0.50;;
4138;SDS011;2083;51.034;6.996;2022-09-02T17:01:13;0.60;;;0.40;;
4138;SDS011;2083;51.034;6.996;2022-09-02T17:03:39;1.13;;;0.80;;
4138;SDS011;2083;51.034;6.996;2022-09-02T17:06:06;0.60;;;0.30;;
4138;SDS011;2083;51.034;6.996;2022-09-02T17:08:32;0.60;;;0.30;;
4138;SDS011;2083;51.034;6.996;2022-09-02T17:13:44;0.60;;;0.30;;
4138;SDS011;2083;51.034;6.996;2022-09-02T17:16:11;0.70;;;0.50;;
4138;SDS011;2083;51.034;6.996;2022-09-02T17:18:37;0.60;;;0.40;;
4138;SDS011;2083;51.034;6.996;2022-09-02T17:21:10;1.50;;;1.50;;
4138;SDS011;2083;51.034;6.996;2022-09-02T17:23:37;0.60;;;0.30;;
4138;SDS011;2083;51.034;6.996;2022-09-02T17:26:03;0.60;;;0.30;;
4138;SDS011;2083;51.034;6.996;2022-09-02T17:28:29;0.70;;;0.60;;
4138;SDS011;2083;51.034;6.996;2022-09-02T17:30:55;0.70;;;0.50;;
4138;SDS011;2083;51.034;6.996;2022-09-02T17:33:22;0.77;;;0.63;;
4138;SDS011;2083;51.034;6.996;2022-09-02T17:35:57;0.70;;;0.50;;
4138;SDS011;2083;51.034;6.996;2022-09-02T17:38:24;1.07;;;0.60;;